Time;durP1;ratioP1;P1;durP2;ratioP2;P2;SDS_P1;SDS_P2;PMS_P1;PMS_P2;Temp;Humidity;BMP_temperature;BMP_pressure;BME280_temperature;BME280_humidity;BME280_pressure;Samples;Min_cycle;Max_cycle;Signal;HPM_P1;HPM_P2
2021/06/23 00:00:19;;;;;;;11.93;2.65;;;24.70;73.90;;;;;;4989604;28;20030;-71
2021/06/23 00:02:45;;;;;;;8.10;2.75;;;24.70;74.30;;;;;;4984353;28;20129;-69
2021/06/23 00:05:11;;;;;;;8.85;2.70;;;24.70;73.50;;;;;;4977618;28;20118;-70
2021/06/23 00:07:37;;;;;;;8.30;2.70;;;24.70;74.00;;;;;;4984079;28;20035;-71
2021/06/23 00:10:03;;;;;;;6.47;2.58;;;24.70;73.00;;;;;;4992936;28;20114;-70
2021/06/23 00:12:29;;;;;;;11.10;2.47;;;24.80;72.70;;;;;;4988638;28;20050;-70
2021/06/23 00:14:55;;;;;;;8.05;2.42;;;24.80;72.20;;;;;;4972748;28;20051;-71
2021/06/23 00:17:21;;;;;;;9.00;2.63;;;24.80;71.90;;;;;;4956217;28;20035;-71
2021/06/23 00:19:46;;;;;;;10.40;2.70;;;24.80;71.70;;;;;;4957543;28;20066;-72
2021/06/23 00:22:12;;;;;;;7.75;3.03;;;24.80;71.90;;;;;;4963374;28;20461;-69
2021/06/23 00:24:39;;;;;;;7.18;2.70;;;24.80;71.70;;;;;;4960987;28;20054;-72
2021/06/23 00:27:05;;;;;;;6.60;2.20;;;24.80;71.60;;;;;;4980788;28;20504;-69
2021/06/23 00:29:31;;;;;;;9.18;3.05;;;24.80;71.50;;;;;;4956696;28;20026;-69
2021/06/23 00:31:58;;;;;;;7.95;2.25;;;24.90;71.50;;;;;;4973695;28;20165;-73
2021/06/23 00:34:26;;;;;;;6.55;2.30;;;24.90;71.30;;;;;;4973504;28;20082;-69
2021/06/23 00:36:53;;;;;;;11.88;3.03;;;24.80;71.40;;;;;;4972639;28;20023;-70
2021/06/23 00:39:18;;;;;;;4.97;2.67;;;24.80;71.50;;;;;;4973523;28;20022;-69
2021/06/23 00:41:44;;;;;;;7.72;2.45;;;24.80;71.70;;;;;;4974002;28;20469;-70
2021/06/23 00:44:14;;;;;;;10.77;2.85;;;24.80;71.70;;;;;;4968703;28;20500;-70
2021/06/23 00:46:42;;;;;;;5.80;2.58;;;24.80;71.70;;;;;;4955621;28;20061;-70
2021/06/23 00:49:08;;;;;;;7.78;2.78;;;24.80;71.40;;;;;;4964156;28;20019;-70
2021/06/23 00:51:34;;;;;;;8.73;2.70;;;24.80;71.10;;;;;;4958687;28;20472;-69
2021/06/23 00:54:01;;;;;;;6.55;2.72;;;24.80;70.80;;;;;;4972749;28;20177;-71
2021/06/23 00:56:33;;;;;;;8.73;2.55;;;24.90;70.50;;;;;;4958451;28;20571;-70
2021/06/23 00:58:59;;;;;;;7.75;2.75;;;24.90;69.80;;;;;;4973097;28;20499;-72
2021/06/23 01:01:26;;;;;;;7.68;2.70;;;24.90;69.40;;;;;;4976785;28;20046;-71
2021/06/23 01:03:54;;;;;;;6.30;2.38;;;25.00;68.80;;;;;;4966213;28;20040;-71
2021/06/23 01:06:20;;;;;;;9.60;2.78;;;25.00;68.50;;;;;;4944209;28;20026;-72
2021/06/23 01:08:46;;;;;;;8.68;2.65;;;25.00;68.00;;;;;;4960767;28;20031;-71
2021/06/23 01:11:12;;;;;;;7.07;2.80;;;25.00;67.70;;;;;;4976336;28;20057;-71
2021/06/23 01:13:41;;;;;;;6.40;2.80;;;25.00;67.70;;;;;;4996499;28;20034;-71
2021/06/23 01:16:09;;;;;;;9.27;2.90;;;25.00;67.80;;;;;;4978020;28;20062;-71
2021/06/23 01:18:37;;;;;;;5.75;2.53;;;25.00;67.70;;;;;;4978823;28;20499;-71
2021/06/23 01:21:04;;;;;;;7.32;2.83;;;24.90;67.80;;;;;;4977838;28;20384;-71
2021/06/23 01:23:30;;;;;;;8.25;2.85;;;24.90;68.80;;;;;;4978832;28;20465;-72
2021/06/23 01:25:56;;;;;;;5.93;2.95;;;24.90;68.40;;;;;;4978733;28;20057;-71
2021/06/23 01:28:22;;;;;;;8.25;3.10;;;24.80;68.60;;;;;;4977676;28;20057;-71
2021/06/23 01:30:47;;;;;;;9.82;3.15;;;24.80;68.70;;;;;;4978337;28;20472;-72
2021/06/23 01:33:13;;;;;;;7.35;3.15;;;24.80;68.90;;;;;;4977662;28;20037;-72
2021/06/23 01:35:39;;;;;;;10.45;3.10;;;24.70;69.10;;;;;;4978815;28;20026;-71
2021/06/23 01:38:05;;;;;;;9.15;3.50;;;24.70;69.30;;;;;;4995809;28;20389;-69
2021/06/23 01:40:32;;;;;;;6.95;3.10;;;24.70;69.40;;;;;;4973610;28;20100;-66
2021/06/23 01:42:58;;;;;;;8.63;3.10;;;24.70;69.50;;;;;;4993905;28;20065;-68
2021/06/23 01:45:25;;;;;;;7.75;3.15;;;24.70;69.50;;;;;;4977007;28;20030;-67
2021/06/23 01:47:51;;;;;;;9.30;3.30;;;24.70;69.60;;;;;;4995531;28;20066;-68
2021/06/23 01:50:19;;;;;;;7.05;3.20;;;24.60;69.70;;;;;;4994705;28;20069;-67
2021/06/23 01:52:45;;;;;;;6.57;3.10;;;24.60;69.90;;;;;;4976453;28;20113;-67
2021/06/23 01:55:27;;;;;;;5.47;2.90;;;24.50;70.10;;;;;;4978168;28;20476;-68
2021/06/23 01:57:57;;;;;;;9.45;3.13;;;24.50;70.40;;;;;;4995830;28;20419;-67
2021/06/23 02:00:30;;;;;;;8.98;3.33;;;24.50;70.60;;;;;;4994845;28;20113;-67
2021/06/23 02:03:01;;;;;;;6.82;3.28;;;24.40;70.70;;;;;;4977972;28;20492;-67
2021/06/23 02:05:42;;;;;;;10.30;3.47;;;24.40;70.90;;;;;;4995306;28;20023;-68
2021/06/23 02:08:35;;;;;;;7.90;3.33;;;24.40;70.90;;;;;;4977727;28;20034;-68
2021/06/23 02:11:32;;;;;;;10.20;3.15;;;24.30;70.90;;;;;;4995126;28;20027;-68
2021/06/23 02:14:28;;;;;;;9.32;3.25;;;24.30;70.80;;;;;;4957778;28;20043;-67
2021/06/23 02:16:55;;;;;;;7.80;3.13;;;24.30;70.80;;;;;;4958443;28;20448;-67
2021/06/23 02:19:21;;;;;;;8.43;4.85;;;24.30;70.90;;;;;;4975339;28;20138;-69
2021/06/23 02:21:47;;;;;;;8.48;3.10;;;24.30;71.10;;;;;;4957756;28;20552;-68
2021/06/23 02:24:14;;;;;;;10.40;3.90;;;24.30;71.40;;;;;;4974995;28;20102;-69
2021/06/23 02:26:40;;;;;;;9.40;2.80;;;24.30;71.70;;;;;;4957931;28;20125;-69
2021/06/23 02:29:07;;;;;;;7.90;3.00;;;24.30;72.00;;;;;;4979071;28;20114;-68
2021/06/23 02:31:37;;;;;;;10.18;3.72;;;24.30;72.20;;;;;;4958066;28;20062;-67
2021/06/23 02:34:08;;;;;;;6.93;3.20;;;24.30;72.50;;;;;;4957677;28;20393;-69
2021/06/23 02:36:35;;;;;;;8.90;3.00;;;24.30;72.30;;;;;;4958351;28;20033;-69
2021/06/23 02:39:02;;;;;;;7.28;2.83;;;24.30;72.20;;;;;;4973928;28;20492;-69
2021/06/23 02:41:27;;;;;;;9.50;3.00;;;24.30;72.20;;;;;;4953226;28;20038;-67
2021/06/23 02:43:54;;;;;;;11.35;3.72;;;24.40;72.10;;;;;;4954498;28;20441;-68
2021/06/23 02:46:20;;;;;;;8.20;3.00;;;24.40;71.80;;;;;;4955583;28;20026;-68
2021/06/23 02:48:46;;;;;;;9.60;3.33;;;24.40;71.80;;;;;;4965277;28;20034;-70
2021/06/23 02:51:20;;;;;;;10.70;3.60;;;24.40;71.60;;;;;;4967919;28;20038;-70
2021/06/23 02:53:49;;;;;;;6.88;3.20;;;24.50;71.80;;;;;;4973579;28;20421;-70
2021/06/23 02:56:16;;;;;;;8.75;3.70;;;24.50;71.70;;;;;;4954532;29;20107;-69
2021/06/23 02:58:43;;;;;;;7.45;3.08;;;24.50;71.70;;;;;;4969047;28;20054;-69
2021/06/23 03:01:13;;;;;;;12.70;3.60;;;24.50;71.70;;;;;;4956408;28;20518;-67
2021/06/23 03:03:41;;;;;;;10.68;3.28;;;24.50;71.60;;;;;;4967272;28;20027;-67
2021/06/23 03:06:08;;;;;;;7.90;3.20;;;24.60;71.80;;;;;;4962644;28;20027;-69
2021/06/23 03:08:35;;;;;;;7.38;3.20;;;24.60;71.80;;;;;;4955408;28;20031;-69
2021/06/23 03:11:01;;;;;;;7.60;3.50;;;24.70;71.90;;;;;;4946334;29;20042;-69
2021/06/23 03:13:27;;;;;;;9.45;3.60;;;24.70;71.90;;;;;;4955861;28;20059;-69
2021/06/23 03:15:53;;;;;;;7.60;3.78;;;24.80;71.90;;;;;;4942344;28;20055;-71
2021/06/23 03:18:19;;;;;;;7.68;3.40;;;24.80;71.80;;;;;;4965498;28;20400;-68
2021/06/23 03:20:45;;;;;;;10.65;3.50;;;24.80;71.70;;;;;;4946057;28;20114;-70
2021/06/23 03:23:11;;;;;;;10.00;3.50;;;24.90;71.70;;;;;;4956467;28;20059;-69
2021/06/23 03:25:37;;;;;;;7.63;3.40;;;24.90;71.70;;;;;;4956918;28;20389;-68
2021/06/23 03:28:04;;;;;;;5.63;2.78;;;24.90;71.80;;;;;;4956435;28;20495;-70
2021/06/23 03:30:30;;;;;;;9.68;3.55;;;24.90;71.80;;;;;;4973691;28;20354;-68
2021/06/23 03:32:57;;;;;;;5.70;3.45;;;24.90;71.80;;;;;;4971805;28;20504;-74
2021/06/23 03:35:23;;;;;;;8.18;3.30;;;24.90;71.70;;;;;;4973724;28;20109;-71
2021/06/23 03:37:50;;;;;;;10.23;3.30;;;24.80;71.70;;;;;;4974461;28;20026;-68
2021/06/23 03:40:17;;;;;;;7.55;3.50;;;24.90;71.60;;;;;;4955541;28;20475;-69
2021/06/23 03:42:43;;;;;;;6.55;3.25;;;24.90;71.60;;;;;;4971385;28;20062;-68
2021/06/23 03:45:10;;;;;;;6.97;4.07;;;24.90;71.60;;;;;;4953139;28;20057;-69
2021/06/23 03:47:36;;;;;;;13.07;5.30;;;24.90;71.70;;;;;;4972523;28;20088;-72
2021/06/23 03:50:02;;;;;;;12.85;5.80;;;25.00;72.20;;;;;;4973963;28;20377;-71
2021/06/23 03:52:28;;;;;;;13.00;6.45;;;25.00;71.70;;;;;;4973384;28;20071;-68
2021/06/23 03:54:53;;;;;;;8.40;4.63;;;25.10;71.70;;;;;;4969918;28;20031;-69
2021/06/23 03:57:19;;;;;;;6.07;3.92;;;25.10;71.60;;;;;;4961716;28;20034;-69
2021/06/23 03:59:45;;;;;;;7.40;3.60;;;25.10;71.80;;;;;;4949252;28;20041;-68
2021/06/23 04:02:11;;;;;;;9.73;4.00;;;25.10;71.80;;;;;;4959351;28;20051;-68
2021/06/23 04:04:36;;;;;;;8.32;4.35;;;25.20;72.00;;;;;;4943605;28;20122;-69
2021/06/23 04:07:02;;;;;;;7.95;4.40;;;25.20;72.00;;;;;;4955756;28;20031;-67
2021/06/23 04:09:28;;;;;;;7.00;3.70;;;25.20;72.00;;;;;;4951978;28;20034;-74
2021/06/23 04:11:53;;;;;;;10.70;4.13;;;25.30;71.90;;;;;;4960990;28;20121;-69
2021/06/23 04:14:19;;;;;;;8.90;4.18;;;25.30;72.00;;;;;;4977382;28;20022;-69
2021/06/23 04:16:46;;;;;;;7.53;4.18;;;25.40;71.80;;;;;;4973051;28;20109;-69
2021/06/23 04:19:11;;;;;;;7.03;4.40;;;25.40;71.60;;;;;;4989068;28;20485;-70
2021/06/23 04:21:37;;;;;;;8.68;4.22;;;25.40;71.60;;;;;;4991369;28;20372;-66
2021/06/23 04:24:03;;;;;;;8.05;4.30;;;25.50;71.60;;;;;;4964165;28;20393;-67
2021/06/23 04:26:29;;;;;;;10.65;3.92;;;25.50;71.60;;;;;;4986968;28;20034;-66
2021/06/23 04:28:55;;;;;;;10.73;4.60;;;25.50;71.60;;;;;;4992825;28;20053;-66
2021/06/23 04:31:20;;;;;;;7.85;4.28;;;25.50;71.70;;;;;;4992362;28;20034;-69
2021/06/23 04:33:46;;;;;;;10.75;4.15;;;25.50;71.60;;;;;;4974895;28;20370;-68
2021/06/23 04:36:12;;;;;;;7.95;4.10;;;25.60;71.70;;;;;;4972219;28;20027;-66
2021/06/23 04:38:38;;;;;;;12.93;6.82;;;25.60;71.80;;;;;;4974480;28;20113;-66
2021/06/23 04:41:04;;;;;;;13.38;8.73;;;25.50;71.90;;;;;;4968018;28;20461;-67
2021/06/23 04:43:29;;;;;;;12.32;7.35;;;25.50;72.10;;;;;;4996778;28;20518;-65
2021/06/23 04:45:55;;;;;;;9.73;4.70;;;25.60;72.10;;;;;;4996327;28;20022;-64
2021/06/23 04:48:43;;;;;;;11.95;5.22;;;25.60;72.00;;;;;;4996239;28;20078;-66
2021/06/23 04:51:14;;;;;;;11.93;6.15;;;25.60;71.60;;;;;;4979806;28;20033;-66
2021/06/23 04:53:43;;;;;;;12.57;9.73;;;25.70;71.50;;;;;;4982909;28;20037;-67
2021/06/23 04:56:09;;;;;;;21.08;15.50;;;25.70;71.40;;;;;;4994147;28;20034;-68
2021/06/23 04:58:35;;;;;;;14.73;11.88;;;25.70;71.40;;;;;;4994085;28;20121;-68
2021/06/23 05:01:00;;;;;;;14.65;8.75;;;25.80;71.30;;;;;;4994417;28;20461;-67
2021/06/23 05:03:26;;;;;;;13.23;6.05;;;25.90;71.10;;;;;;4994965;28;20052;-67
2021/06/23 05:05:54;;;;;;;8.40;4.85;;;26.00;71.00;;;;;;4994618;28;20530;-65
2021/06/23 05:08:19;;;;;;;15.70;8.48;;;26.10;71.00;;;;;;4994543;28;20030;-65
2021/06/23 05:10:45;;;;;;;13.27;6.45;;;26.40;70.70;;;;;;4977478;28;20085;-65
2021/06/23 05:13:11;;;;;;;12.13;5.00;;;26.90;70.70;;;;;;4978666;28;20062;-66
2021/06/23 05:15:36;;;;;;;10.60;4.53;;;27.60;69.30;;;;;;4995980;28;20596;-68
2021/06/23 05:18:03;;;;;;;9.07;4.90;;;28.10;67.50;;;;;;4996114;28;20416;-69
2021/06/23 05:20:28;;;;;;;10.93;4.40;;;28.60;66.00;;;;;;4989050;28;20033;-67
2021/06/23 05:22:54;;;;;;;9.23;3.95;;;29.00;64.90;;;;;;5010562;28;20027;-68
2021/06/23 05:25:21;;;;;;;9.93;3.97;;;29.30;64.00;;;;;;4996281;28;20092;-68
2021/06/23 05:27:47;;;;;;;9.10;4.00;;;29.70;63.00;;;;;;4978467;28;20038;-65
2021/06/23 05:30:14;;;;;;;9.45;3.75;;;30.10;62.20;;;;;;4978151;28;20074;-67
2021/06/23 05:32:39;;;;;;;7.30;3.55;;;30.40;61.50;;;;;;4996062;28;20030;-67
2021/06/23 05:35:06;;;;;;;12.60;3.95;;;30.70;61.00;;;;;;4995864;28;20049;-67
2021/06/23 05:37:32;;;;;;;10.45;4.88;;;30.90;60.00;;;;;;4978784;28;20224;-67
2021/06/23 05:39:58;;;;;;;13.85;5.38;;;31.00;59.40;;;;;;4978792;28;20041;-68
2021/06/23 05:42:24;;;;;;;13.88;5.13;;;30.90;59.20;;;;;;4976502;28;20023;-72
2021/06/23 05:44:50;;;;;;;12.48;4.60;;;31.00;59.30;;;;;;4976326;28;20104;-72
2021/06/23 05:47:16;;;;;;;10.70;3.75;;;31.00;59.60;;;;;;4977194;28;20027;-72
2021/06/23 05:49:42;;;;;;;12.10;6.25;;;31.00;59.40;;;;;;4994328;28;20038;-70
2021/06/23 05:52:07;;;;;;;12.43;5.30;;;31.20;59.60;;;;;;4976729;28;20026;-68
2021/06/23 05:54:33;;;;;;;11.45;5.03;;;31.50;59.10;;;;;;4976922;28;20030;-72
2021/06/23 05:56:59;;;;;;;14.77;5.32;;;31.60;58.10;;;;;;4989136;28;20052;-68
2021/06/23 05:59:25;;;;;;;14.77;5.25;;;31.50;58.20;;;;;;4977691;28;20109;-72
2021/06/23 06:01:51;;;;;;;12.63;5.63;;;31.50;57.90;;;;;;4973801;28;20027;-72
2021/06/23 06:04:16;;;;;;;10.27;5.90;;;31.40;58.00;;;;;;4969748;28;20054;-70
2021/06/23 06:06:42;;;;;;;10.32;6.05;;;31.20;58.30;;;;;;4987381;28;20023;-69
2021/06/23 06:09:08;;;;;;;13.25;5.85;;;31.00;58.70;;;;;;4988249;28;20113;-67
2021/06/23 06:11:33;;;;;;;14.63;6.68;;;30.80;58.60;;;;;;4970968;28;20132;-69
2021/06/23 06:13:59;;;;;;;22.85;12.75;;;30.60;59.20;;;;;;4990838;28;20062;-70
2021/06/23 06:16:25;;;;;;;18.65;16.08;;;30.60;59.30;;;;;;4972702;28;20038;-71
2021/06/23 06:18:51;;;;;;;19.70;14.35;;;30.60;59.50;;;;;;4981673;28;20058;-68
2021/06/23 06:21:17;;;;;;;16.33;8.32;;;30.80;60.70;;;;;;4984885;28;20117;-69
2021/06/23 06:23:42;;;;;;;9.88;7.22;;;31.20;59.40;;;;;;4984155;28;20033;-70
2021/06/23 06:26:08;;;;;;;12.57;5.50;;;31.30;58.00;;;;;;4978170;28;20034;-69
2021/06/23 06:28:35;;;;;;;9.05;4.97;;;31.30;57.70;;;;;;4979266;28;20042;-70
2021/06/23 06:31:01;;;;;;;10.98;4.75;;;31.20;57.80;;;;;;4975556;28;20063;-67
2021/06/23 06:33:27;;;;;;;8.43;5.22;;;31.20;57.90;;;;;;4992267;28;20022;-71
2021/06/23 06:35:53;;;;;;;8.00;5.38;;;31.50;58.50;;;;;;4975336;28;20030;-68
2021/06/23 06:38:18;;;;;;;12.60;8.43;;;31.90;57.70;;;;;;4994496;28;20030;-70
2021/06/23 06:40:44;;;;;;;14.60;6.60;;;32.20;57.30;;;;;;4995080;28;20030;-68
2021/06/23 06:43:11;;;;;;;10.90;5.85;;;32.50;56.50;;;;;;4977176;28;20384;-72
2021/06/23 06:45:37;;;;;;;8.98;5.18;;;32.60;56.00;;;;;;4977714;28;20439;-70
2021/06/23 06:48:03;;;;;;;8.85;4.80;;;32.60;55.80;;;;;;4994635;28;20034;-72
2021/06/23 06:50:28;;;;;;;14.60;6.65;;;32.40;55.80;;;;;;4994758;28;20026;-69
2021/06/23 06:52:54;;;;;;;12.90;6.95;;;32.20;56.80;;;;;;4977185;28;20093;-70
2021/06/23 06:55:21;;;;;;;11.38;6.22;;;31.90;57.30;;;;;;4994492;28;20029;-71
2021/06/23 06:57:51;;;;;;;16.70;9.35;;;31.70;58.10;;;;;;4976956;28;20041;-71
2021/06/23 07:00:19;;;;;;;14.55;10.48;;;31.40;57.80;;;;;;4994383;28;20026;-74
2021/06/23 07:02:45;;;;;;;21.05;13.75;;;31.10;58.20;;;;;;4977256;28;20042;-72
2021/06/23 07:05:11;;;;;;;18.73;12.90;;;30.80;58.70;;;;;;4994347;28;20030;-67
2021/06/23 07:07:36;;;;;;;11.68;7.35;;;30.40;59.50;;;;;;4994066;28;20034;-69
2021/06/23 07:10:03;;;;;;;11.43;6.90;;;30.20;59.70;;;;;;4994087;28;20042;-71
2021/06/23 07:12:29;;;;;;;9.25;4.60;;;30.00;60.30;;;;;;4994492;28;20393;-68
2021/06/23 07:14:54;;;;;;;12.38;5.32;;;29.70;60.30;;;;;;4994595;28;20033;-68
2021/06/23 07:17:20;;;;;;;13.15;4.95;;;29.60;61.00;;;;;;4994117;28;20469;-68
2021/06/23 07:19:46;;;;;;;12.05;4.95;;;29.80;60.90;;;;;;4997189;28;20037;-69
2021/06/23 07:22:11;;;;;;;13.80;4.47;;;30.20;60.20;;;;;;4979667;28;20505;-69
2021/06/23 07:24:37;;;;;;;8.90;4.45;;;30.30;58.90;;;;;;4992182;28;20026;-70
2021/06/23 07:27:04;;;;;;;8.82;4.78;;;30.20;58.30;;;;;;4993807;28;20073;-70
2021/06/23 07:29:30;;;;;;;8.80;4.90;;;30.00;58.50;;;;;;4994449;28;20379;-69
2021/06/23 07:36:57;;;;;;;11.50;5.55;;;30.10;60.60;;;;;;4993948;28;20038;-69
2021/06/23 07:39:23;;;;;;;15.05;5.22;;;30.80;60.00;;;;;;4976548;28;20121;-70
2021/06/23 07:41:51;;;;;;;9.00;5.18;;;31.40;59.10;;;;;;4976393;28;20523;-70
2021/06/23 07:44:20;;;;;;;11.23;6.40;;;31.90;57.70;;;;;;4993797;28;20356;-70
2021/06/23 07:46:56;;;;;;;18.10;7.20;;;32.10;57.00;;;;;;4993804;28;20026;-68
2021/06/23 07:49:25;;;;;;;12.55;8.48;;;32.00;56.10;;;;;;4993907;28;20041;-70
2021/06/23 07:51:59;;;;;;;11.10;4.95;;;31.80;55.80;;;;;;4993463;28;20026;-67
2021/06/23 08:10:41;;;;;;;7.90;4.97;;;33.40;54.70;;;;;;4994630;28;20515;-73
2021/06/23 08:13:07;;;;;;;10.23;5.43;;;33.90;53.90;;;;;;5013085;28;20247;-68
2021/06/23 08:15:36;;;;;;;10.23;5.10;;;34.10;52.20;;;;;;4998905;28;20018;-69
2021/06/23 08:18:03;;;;;;;11.57;6.47;;;34.50;51.40;;;;;;4980232;28;20023;-70
2021/06/23 08:20:29;;;;;;;12.80;6.53;;;34.70;51.20;;;;;;4997770;28;20026;-69
2021/06/23 08:22:55;;;;;;;20.33;13.38;;;35.00;50.90;;;;;;4979966;28;20033;-70
2021/06/23 08:25:22;;;;;;;12.90;10.65;;;35.10;50.40;;;;;;4997518;28;20105;-69
2021/06/23 08:27:49;;;;;;;9.23;5.70;;;34.90;50.30;;;;;;4997183;28;20483;-69
2021/06/23 08:30:15;;;;;;;16.25;6.10;;;34.70;50.00;;;;;;4996846;28;20026;-69
2021/06/23 08:32:41;;;;;;;7.68;5.53;;;34.30;50.60;;;;;;4997228;28;20023;-70
2021/06/23 08:35:08;;;;;;;12.40;8.30;;;34.00;51.50;;;;;;4979573;28;20058;-70
2021/06/23 08:37:35;;;;;;;7.65;5.57;;;33.70;52.40;;;;;;4987500;28;20085;-71
2021/06/23 08:40:01;;;;;;;10.45;5.97;;;33.30;52.80;;;;;;4983070;28;20026;-74
2021/06/23 08:42:27;;;;;;;11.93;5.65;;;32.90;53.70;;;;;;4997118;28;20022;-70
2021/06/23 08:44:52;;;;;;;15.65;5.90;;;33.10;55.60;;;;;;4997233;28;20026;-69
2021/06/23 08:47:18;;;;;;;11.95;6.40;;;33.50;54.50;;;;;;4997007;28;20464;-68
2021/06/23 08:49:48;;;;;;;11.85;4.88;;;33.70;54.30;;;;;;4979693;28;20080;-68
2021/06/23 08:52:14;;;;;;;11.55;4.30;;;33.90;53.30;;;;;;4979724;28;20022;-68
2021/06/23 08:54:41;;;;;;;10.85;4.28;;;34.10;52.70;;;;;;4997372;28;20023;-68
2021/06/23 08:57:08;;;;;;;10.35;5.72;;;34.10;52.30;;;;;;4996839;28;20026;-69
2021/06/23 08:59:34;;;;;;;12.95;7.32;;;34.00;52.40;;;;;;4997039;28;20053;-69
2021/06/23 09:02:01;;;;;;;13.90;4.85;;;34.10;52.60;;;;;;4996524;28;20065;-68
2021/06/23 09:04:28;;;;;;;13.30;5.75;;;34.10;52.10;;;;;;4979492;28;20392;-68
2021/06/23 09:06:58;;;;;;;13.90;5.13;;;34.00;52.10;;;;;;4996916;28;20037;-68
2021/06/23 09:09:34;;;;;;;13.32;8.73;;;33.90;51.80;;;;;;4979420;28;20033;-69
2021/06/23 09:12:04;;;;;;;13.77;5.68;;;33.90;52.60;;;;;;4976064;28;20092;-68
2021/06/23 09:14:36;;;;;;;9.93;6.10;;;33.90;52.90;;;;;;4963614;28;20027;-68
2021/06/23 09:17:13;;;;;;;13.50;5.22;;;33.90;52.80;;;;;;4977079;28;20465;-67
2021/06/23 09:19:40;;;;;;;12.30;6.70;;;34.10;53.20;;;;;;4959631;28;20026;-66
2021/06/23 09:22:46;;;;;;;15.50;6.70;;;34.40;53.00;;;;;;4969713;28;20033;-70
2021/06/23 09:25:12;;;;;;;12.05;5.10;;;34.80;52.50;;;;;;4967437;28;20026;-71
2021/06/23 09:27:56;;;;;;;15.10;5.63;;;34.90;51.40;;;;;;4976295;28;20035;-70
2021/06/23 09:30:32;;;;;;;9.38;4.63;;;35.10;51.00;;;;;;4963750;28;20580;-71
2021/06/23 09:33:10;;;;;;;10.10;5.55;;;35.10;50.90;;;;;;4959258;28;20034;-73
2021/06/23 09:35:37;;;;;;;12.80;7.50;;;34.70;50.40;;;;;;4976705;28;20022;-71
2021/06/23 09:38:05;;;;;;;17.75;8.50;;;34.30;51.00;;;;;;4976120;28;20030;-75
2021/06/23 09:40:41;;;;;;;12.85;6.75;;;34.00;52.50;;;;;;4977095;28;20025;-71
2021/06/23 09:43:10;;;;;;;15.48;5.32;;;34.00;53.60;;;;;;4959702;28;20439;-69
2021/06/23 09:45:36;;;;;;;10.82;5.28;;;34.00;53.20;;;;;;4982663;28;20468;-70
2021/06/23 09:48:05;;;;;;;12.75;5.22;;;33.90;53.30;;;;;;4996074;28;20030;-73
2021/06/23 09:50:32;;;;;;;11.02;5.32;;;33.90;54.70;;;;;;4977979;28;20054;-71
2021/06/23 09:53:08;;;;;;;11.30;5.35;;;34.10;54.90;;;;;;4987148;28;20030;-71
2021/06/23 09:55:47;;;;;;;9.90;5.60;;;34.10;54.00;;;;;;4978039;28;20027;-71
2021/06/23 09:58:14;;;;;;;15.43;5.40;;;34.20;54.80;;;;;;4976078;28;20473;-70
2021/06/23 10:01:01;;;;;;;12.30;5.00;;;34.40;54.50;;;;;;4976064;28;20033;-69
2021/06/23 10:03:36;;;;;;;13.05;5.13;;;34.50;54.60;;;;;;4975109;28;20031;-72
2021/06/23 10:06:26;;;;;;;13.85;4.93;;;34.50;53.80;;;;;;4961802;28;20030;-72
2021/06/23 10:09:10;;;;;;;10.27;5.15;;;34.50;54.10;;;;;;4958732;28;20046;-72
2021/06/23 10:11:36;;;;;;;12.77;4.60;;;34.30;53.40;;;;;;4963221;28;20054;-71
2021/06/23 10:14:01;;;;;;;9.75;4.22;;;34.30;54.00;;;;;;4995250;28;20037;-74
2021/06/23 10:16:28;;;;;;;13.05;4.55;;;34.60;53.70;;;;;;4996694;28;20023;-72
2021/06/23 10:18:55;;;;;;;13.57;4.88;;;34.80;53.60;;;;;;4979366;28;20053;-68
2021/06/23 10:21:22;;;;;;;15.57;4.63;;;34.90;53.90;;;;;;4979107;28;20475;-69
2021/06/23 10:23:49;;;;;;;16.85;4.65;;;34.90;53.50;;;;;;4978584;28;20061;-70
2021/06/23 10:26:16;;;;;;;13.52;4.78;;;34.80;52.70;;;;;;4977554;28;20114;-69
2021/06/23 10:28:45;;;;;;;11.60;4.70;;;34.60;52.90;;;;;;4995251;28;20362;-69
2021/06/23 10:31:11;;;;;;;9.52;4.40;;;34.30;53.20;;;;;;4995226;28;20026;-70
2021/06/23 10:33:39;;;;;;;13.07;5.28;;;34.00;53.60;;;;;;4994881;28;20030;-69
2021/06/23 10:36:06;;;;;;;13.77;4.97;;;33.60;53.90;;;;;;4994776;28;20026;-71
2021/06/23 10:38:34;;;;;;;11.85;6.78;;;33.30;54.70;;;;;;4976546;28;20109;-68
2021/06/23 10:41:00;;;;;;;16.02;7.03;;;32.90;55.20;;;;;;4994825;28;20481;-70
2021/06/23 10:43:25;;;;;;;16.75;8.60;;;32.50;56.00;;;;;;4994886;28;20058;-69
2021/06/23 10:45:53;;;;;;;14.85;6.38;;;32.20;57.30;;;;;;4994812;28;20026;-70
2021/06/23 10:48:19;;;;;;;20.15;9.60;;;32.00;58.50;;;;;;4977095;28;20168;-70
2021/06/23 10:50:45;;;;;;;15.93;8.18;;;31.70;59.40;;;;;;4995011;28;20026;-70
2021/06/23 10:53:40;;;;;;;19.85;7.68;;;31.60;60.20;;;;;;4995033;28;20461;-69
2021/06/23 10:56:05;;;;;;;16.95;7.07;;;31.50;60.60;;;;;;4953552;28;20038;-70
2021/06/23 10:58:35;;;;;;;16.70;6.40;;;31.40;60.90;;;;;;4994380;28;20026;-70
2021/06/23 11:01:07;;;;;;;17.23;10.23;;;31.30;61.20;;;;;;4994596;28;20081;-70
2021/06/23 11:04:02;;;;;;;15.85;8.15;;;31.20;60.80;;;;;;4977019;28;20030;-69
2021/06/23 11:06:44;;;;;;;17.55;6.07;;;31.10;60.80;;;;;;4977725;28;20372;-69
2021/06/23 11:09:27;;;;;;;12.13;5.95;;;31.00;61.20;;;;;;4976713;28;20061;-70
2021/06/23 11:11:54;;;;;;;16.55;5.88;;;30.90;61.40;;;;;;4994327;28;20053;-74
2021/06/23 11:14:22;;;;;;;13.48;6.00;;;30.90;62.10;;;;;;4976656;28;20456;-67
2021/06/23 11:16:49;;;;;;;12.15;5.63;;;30.70;62.40;;;;;;4994423;28;20026;-69
2021/06/23 11:19:15;;;;;;;16.92;6.05;;;30.70;63.00;;;;;;4994233;28;20072;-69
2021/06/23 11:21:45;;;;;;;14.40;6.40;;;30.70;63.30;;;;;;4977018;28;20022;-69
2021/06/23 11:24:16;;;;;;;25.40;10.10;;;30.50;63.50;;;;;;4993895;28;20114;-70
2021/06/23 11:26:49;;;;;;;18.45;7.93;;;30.40;64.60;;;;;;4994221;28;20061;-76
2021/06/23 11:29:15;;;;;;;16.08;6.88;;;30.40;64.70;;;;;;4994484;28;20069;-69
2021/06/23 11:31:45;;;;;;;15.05;7.28;;;30.30;64.80;;;;;;4976714;28;20460;-69
2021/06/23 11:34:31;;;;;;;17.52;7.20;;;30.30;64.80;;;;;;4993873;28;20034;-69
2021/06/23 11:36:57;;;;;;;15.30;7.78;;;30.30;65.30;;;;;;4993650;28;20037;-70
2021/06/23 11:39:23;;;;;;;20.15;8.93;;;30.30;65.00;;;;;;4977017;28;20037;-69
2021/06/23 11:41:49;;;;;;;25.17;8.73;;;30.30;65.30;;;;;;4993798;28;20027;-71
2021/06/23 11:44:14;;;;;;;22.63;7.07;;;30.30;65.70;;;;;;4993754;28;20030;-67
2021/06/23 11:46:40;;;;;;;17.23;6.50;;;30.30;65.60;;;;;;4993812;28;20027;-70
2021/06/23 11:49:06;;;;;;;21.88;7.18;;;30.30;65.20;;;;;;4976410;28;20038;-68
2021/06/23 11:51:31;;;;;;;17.67;6.82;;;30.30;65.20;;;;;;4993914;28;20046;-69
2021/06/23 11:53:57;;;;;;;15.85;7.22;;;30.30;65.30;;;;;;4994117;28;20101;-70
2021/06/23 11:56:23;;;;;;;18.45;6.85;;;30.20;65.50;;;;;;4993810;28;20027;-69
2021/06/23 11:58:48;;;;;;;20.30;6.82;;;30.20;65.20;;;;;;4994319;28;20357;-69
2021/06/23 12:01:14;;;;;;;22.05;6.95;;;30.20;65.10;;;;;;4976461;28;20515;-69
2021/06/23 12:03:39;;;;;;;14.75;5.50;;;30.20;65.10;;;;;;4993537;28;20461;-69
2021/06/23 12:06:05;;;;;;;19.75;6.47;;;30.20;64.90;;;;;;4975911;28;20038;-70
2021/06/23 12:08:31;;;;;;;12.63;5.22;;;30.20;65.00;;;;;;4993930;28;20030;-68
2021/06/23 12:10:56;;;;;;;16.00;5.68;;;30.20;65.40;;;;;;4976067;28;20390;-68
2021/06/23 12:13:22;;;;;;;15.30;5.97;;;30.10;65.80;;;;;;4994026;28;20081;-70
2021/06/23 12:15:48;;;;;;;18.45;6.07;;;30.10;65.80;;;;;;4976133;28;20031;-68
2021/06/23 12:18:14;;;;;;;19.38;6.13;;;30.10;65.90;;;;;;4993557;28;20037;-67
2021/06/23 12:20:41;;;;;;;21.50;6.88;;;30.10;65.70;;;;;;4975633;28;20080;-69
2021/06/23 12:23:09;;;;;;;24.63;7.15;;;30.10;65.70;;;;;;4993699;28;20026;-67
2021/06/23 12:25:45;;;;;;;16.45;5.57;;;30.20;65.60;;;;;;4976423;28;20080;-69
2021/06/23 12:28:12;;;;;;;19.63;5.75;;;30.20;65.40;;;;;;4993473;28;20039;-67
2021/06/23 12:30:40;;;;;;;13.63;5.38;;;30.20;65.60;;;;;;4976071;28;20469;-68
2021/06/23 12:33:09;;;;;;;20.40;7.40;;;30.20;65.60;;;;;;4993139;28;20026;-70
2021/06/23 12:35:35;;;;;;;27.88;7.40;;;30.20;65.70;;;;;;4993745;28;20033;-70
2021/06/23 12:38:04;;;;;;;23.55;6.70;;;30.30;65.70;;;;;;4976175;28;20030;-72
2021/06/23 12:40:30;;;;;;;24.27;5.60;;;30.30;65.40;;;;;;4976068;28;20439;-70
2021/06/23 12:42:55;;;;;;;16.88;5.28;;;30.20;65.10;;;;;;4976059;28;20058;-73
2021/06/23 12:45:22;;;;;;;22.02;6.13;;;30.20;65.40;;;;;;4993238;28;20019;-71
2021/06/23 12:47:47;;;;;;;18.73;6.32;;;30.20;65.30;;;;;;4993173;28;20038;-70
2021/06/23 12:50:17;;;;;;;14.45;5.90;;;30.20;65.20;;;;;;4993077;28;20022;-71
2021/06/23 12:52:50;;;;;;;17.52;5.80;;;30.20;65.30;;;;;;4993733;28;20025;-71
2021/06/23 12:55:17;;;;;;;18.60;5.95;;;30.10;65.50;;;;;;4975850;28;20085;-71
2021/06/23 12:57:44;;;;;;;22.08;5.57;;;30.20;66.10;;;;;;4993197;28;20029;-71
2021/06/23 13:00:11;;;;;;;15.52;5.65;;;30.20;65.90;;;;;;4992804;28;20034;-75
2021/06/23 13:02:38;;;;;;;22.63;6.95;;;30.10;66.10;;;;;;4977958;28;20388;-75
2021/06/23 13:05:06;;;;;;;17.48;5.85;;;30.10;66.00;;;;;;4979224;28;20039;-75